createdAt,value
2023-01-10T00:00:55.725Z,24.50
2023-01-10T00:03:22.734Z,24.67
2023-01-10T00:05:49.812Z,25.53
2023-01-10T00:08:17.539Z,24.97
2023-01-10T00:10:44.644Z,25.20
2023-01-10T00:13:25.359Z,23.60
2023-01-10T00:15:55.451Z,23.70
2023-01-10T00:18:23.223Z,24.40
2023-01-10T00:20:50.616Z,24.03
2023-01-10T00:23:18.548Z,25.93
2023-01-10T00:25:46.127Z,24.53
2023-01-10T00:28:20.264Z,25.73
2023-01-10T00:31:00.088Z,24.60
2023-01-10T00:33:30.090Z,24.13
2023-01-10T00:35:57.324Z,24.17
2023-01-10T00:38:24.451Z,24.43
2023-01-10T00:40:51.534Z,24.90
2023-01-10T00:43:37.318Z,25.37
2023-01-10T00:46:04.481Z,25.37
2023-01-10T00:48:31.499Z,25.30
2023-01-10T00:50:58.523Z,26.77
2023-01-10T00:53:25.661Z,26.90
2023-01-10T00:55:55.113Z,25.20
2023-01-10T00:58:22.445Z,25.23
2023-01-10T01:00:50.346Z,25.63
2023-01-10T01:03:20.166Z,24.30
2023-01-10T01:05:49.028Z,25.00
2023-01-10T01:08:18.281Z,24.47
2023-01-10T01:10:46.091Z,25.10
2023-01-10T01:13:20.077Z,26.10
2023-01-10T01:15:48.477Z,26.17
2023-01-10T01:18:21.842Z,25.77
2023-01-10T01:20:53.526Z,26.80
2023-01-10T01:23:20.805Z,27.27
2023-01-10T01:25:52.009Z,27.07
2023-01-10T01:28:19.192Z,27.83
2023-01-10T01:30:46.724Z,27.67
2023-01-10T01:33:14.167Z,28.70
2023-01-10T01:35:45.967Z,26.87
2023-01-10T01:38:14.134Z,28.03
2023-01-10T01:40:41.818Z,28.67
2023-01-10T01:43:34.423Z,27.43
2023-01-10T01:46:04.370Z,28.03
2023-01-10T01:48:42.876Z,28.13
2023-01-10T01:51:28.615Z,27.77
2023-01-10T01:54:12.053Z,27.43
2023-01-10T01:56:51.990Z,27.40
2023-01-10T01:59:28.721Z,28.73
2023-01-10T02:02:11.675Z,27.67
2023-01-10T02:04:48.975Z,28.83
2023-01-10T02:07:16.273Z,28.90
2023-01-10T02:09:54.115Z,28.70
2023-01-10T02:12:21.255Z,28.67
2023-01-10T02:14:51.257Z,29.67
2023-01-10T02:17:18.262Z,31.40
2023-01-10T02:20:03.268Z,30.73
2023-01-10T02:23:10.905Z,30.00
2023-01-10T02:26:17.960Z,30.20
2023-01-10T02:29:03.214Z,28.20
2023-01-10T02:32:04.032Z,28.53
2023-01-10T02:34:50.940Z,28.70
2023-01-10T02:37:36.954Z,28.33
2023-01-10T02:40:21.167Z,30.20
2023-01-10T02:43:18.655Z,30.30
2023-01-10T02:46:05.887Z,28.73
2023-01-10T02:48:32.929Z,27.17
2023-01-10T02:51:11.494Z,29.47
2023-01-10T02:53:45.263Z,29.40
2023-01-10T02:56:34.298Z,30.20
2023-01-10T02:59:30.061Z,30.10
2023-01-10T03:02:01.154Z,30.47
2023-01-10T03:05:11.189Z,30.93
2023-01-10T03:08:02.247Z,29.27
2023-01-10T03:11:10.036Z,28.77
2023-01-10T03:13:58.247Z,27.30
2023-01-10T03:16:29.399Z,29.07
2023-01-10T03:19:08.615Z,29.00
2023-01-10T03:21:37.994Z,28.93
2023-01-10T03:24:18.699Z,27.93
2023-01-10T03:27:06.285Z,29.03
2023-01-10T03:30:13.539Z,28.90
2023-01-10T03:32:41.663Z,27.13
2023-01-10T03:35:11.107Z,28.33
2023-01-10T03:38:05.521Z,27.30
2023-01-10T03:40:53.489Z,28.07
2023-01-10T03:43:58.915Z,30.43
2023-01-10T03:46:56.944Z,27.13
2023-01-10T03:49:27.547Z,27.00
2023-01-10T03:51:56.899Z,27.47
2023-01-10T03:54:23.976Z,30.47
2023-01-10T03:56:52.173Z,27.70
2023-01-10T03:59:26.061Z,28.23
2023-01-10T04:01:54.161Z,29.93
2023-01-10T04:04:22.181Z,29.07
2023-01-10T04:06:49.255Z,28.70
2023-01-10T04:09:16.241Z,29.57
2023-01-10T04:11:43.274Z,27.17
2023-01-10T04:14:10.367Z,31.47
2023-01-10T04:16:37.400Z,31.17
2023-01-10T04:19:04.508Z,29.27
2023-01-10T04:21:31.499Z,29.63
2023-01-10T04:23:58.516Z,31.50
2023-01-10T04:26:25.671Z,30.80
2023-01-10T04:28:52.696Z,28.97
2023-01-10T04:31:20.199Z,31.37
2023-01-10T04:33:47.265Z,30.43
2023-01-10T04:36:14.535Z,29.33
2023-01-10T04:38:41.544Z,30.90
2023-01-10T04:41:09.805Z,31.27
2023-01-10T04:43:36.824Z,29.70
2023-01-10T04:46:04.203Z,31.40
2023-01-10T04:48:31.405Z,31.00
2023-01-10T04:50:58.433Z,30.30
2023-01-10T04:53:26.706Z,30.33
2023-01-10T04:55:53.716Z,29.57
2023-01-10T04:58:20.803Z,29.87
2023-01-10T05:00:47.858Z,29.03
2023-01-10T05:03:17.895Z,28.43
2023-01-10T05:05:44.900Z,29.10
2023-01-10T05:08:11.973Z,29.50
2023-01-10T05:10:38.981Z,29.50
2023-01-10T05:13:05.982Z,29.90
2023-01-10T05:15:33.012Z,28.43
2023-01-10T05:18:01.233Z,28.47
2023-01-10T05:20:28.226Z,29.53
2023-01-10T05:22:55.237Z,26.40
2023-01-10T05:25:23.327Z,28.63
2023-01-10T05:27:50.449Z,28.77
2023-01-10T05:30:17.873Z,28.70
2023-01-10T05:32:45.048Z,29.43
2023-01-10T05:35:12.164Z,28.10
2023-01-10T05:37:39.819Z,27.93
2023-01-10T05:40:07.859Z,29.80
2023-01-10T05:42:34.911Z,28.00
2023-01-10T05:45:01.939Z,27.90
2023-01-10T05:47:29.564Z,28.13
2023-01-10T05:49:56.594Z,28.63
2023-01-10T05:52:23.652Z,27.97
2023-01-10T05:54:50.755Z,27.50
2023-01-10T05:57:19.236Z,28.53
2023-01-10T05:59:46.279Z,27.73
2023-01-10T06:02:13.506Z,27.87
2023-01-10T06:04:40.655Z,28.00
2023-01-10T06:07:07.656Z,29.80
2023-01-10T06:09:34.653Z,29.07
2023-01-10T06:12:01.871Z,27.97
2023-01-10T06:14:28.975Z,28.43
2023-01-10T06:16:56.042Z,27.43
2023-01-10T06:19:23.033Z,28.47
2023-01-10T06:21:50.092Z,26.90
2023-01-10T06:24:17.247Z,28.60
2023-01-10T06:26:44.233Z,27.43
2023-01-10T06:29:11.412Z,27.63
2023-01-10T06:31:38.493Z,28.53
2023-01-10T06:34:05.525Z,29.40
2023-01-10T06:36:32.589Z,27.40
2023-01-10T06:38:59.634Z,28.67
2023-01-10T06:41:26.715Z,28.30
2023-01-10T06:43:53.801Z,29.43
2023-01-10T06:46:21.146Z,29.40
2023-01-10T06:48:48.395Z,28.70
2023-01-10T06:51:19.144Z,27.80
2023-01-10T06:53:47.150Z,29.33
2023-01-10T06:56:14.147Z,28.73
2023-01-10T06:58:41.217Z,27.37
2023-01-10T07:01:15.488Z,27.20
2023-01-10T07:03:42.762Z,27.93
2023-01-10T07:06:10.347Z,28.30
2023-01-10T07:08:43.860Z,27.93
2023-01-10T07:11:11.800Z,27.37
2023-01-10T07:13:39.665Z,28.13
2023-01-10T07:16:13.047Z,28.57
2023-01-10T07:18:42.939Z,29.53
2023-01-10T07:21:11.295Z,27.87
2023-01-10T07:23:39.278Z,27.27
2023-01-10T07:26:09.973Z,28.23
2023-01-10T07:28:37.382Z,27.30
2023-01-10T07:31:06.280Z,27.57
2023-01-10T07:33:33.576Z,27.43
2023-01-10T07:36:02.032Z,27.33
2023-01-10T07:38:29.931Z,26.87
2023-01-10T07:40:57.231Z,26.43
2023-01-10T07:43:24.213Z,25.33
2023-01-10T07:45:51.675Z,25.20
2023-01-10T07:48:18.704Z,28.13
2023-01-10T07:50:46.471Z,25.10
2023-01-10T07:53:13.774Z,25.93
2023-01-10T07:55:41.230Z,24.13
2023-01-10T07:58:08.507Z,23.27
2023-01-10T08:00:35.946Z,24.47
2023-01-10T08:03:03.142Z,23.43
2023-01-10T16:58:59.586Z,20.87
2023-01-10T17:01:41.974Z,20.67
2023-01-10T17:04:12.486Z,19.67
2023-01-10T17:06:41.338Z,21.23
2023-01-10T17:09:21.688Z,20.30
2023-01-10T17:11:54.492Z,21.47
2023-01-10T17:14:21.509Z,20.27
2023-01-10T17:16:48.781Z,22.17
2023-01-10T17:19:15.878Z,21.23
2023-01-10T17:21:42.941Z,21.80
2023-01-10T17:24:11.327Z,21.17
2023-01-10T17:26:38.372Z,21.43
2023-01-10T17:29:05.423Z,20.97
2023-01-10T17:31:32.472Z,20.97
2023-01-10T17:33:59.586Z,22.27
2023-01-10T17:36:32.451Z,21.13
2023-01-10T17:38:59.895Z,21.77
2023-01-10T17:41:26.906Z,21.70
2023-01-10T17:43:53.886Z,22.13
2023-01-10T17:46:22.292Z,22.43
2023-01-10T17:48:49.306Z,22.60
2023-01-10T17:51:17.491Z,20.50
2023-01-10T17:53:44.666Z,21.60
2023-01-10T17:56:12.008Z,21.63
2023-01-10T17:58:39.055Z,22.13
2023-01-10T18:01:06.393Z,21.93
2023-01-10T18:03:34.037Z,21.03
2023-01-10T18:06:01.397Z,22.30
2023-01-10T18:08:28.573Z,21.23
2023-01-10T18:11:02.401Z,21.37
2023-01-10T18:13:31.170Z,22.60
2023-01-10T18:15:59.465Z,21.97
2023-01-10T18:18:27.954Z,20.93
2023-01-10T18:20:58.162Z,21.77
2023-01-10T18:23:26.811Z,22.27
2023-01-10T18:26:05.986Z,21.70
2023-01-10T18:28:44.465Z,22.00
2023-01-10T18:31:17.941Z,21.40
2023-01-10T18:33:47.065Z,21.93
2023-01-10T18:36:23.235Z,22.10
2023-01-10T18:38:51.792Z,23.33
2023-01-10T18:41:20.155Z,23.53
2023-01-10T18:43:48.217Z,21.80
2023-01-10T18:46:20.466Z,23.57
2023-01-10T18:48:50.207Z,25.17
2023-01-10T18:51:19.094Z,24.43
2023-01-10T18:53:47.637Z,22.13
2023-01-10T18:56:14.908Z,22.47
2023-01-10T18:58:43.064Z,23.10
2023-01-10T19:01:19.177Z,24.57
2023-01-10T19:03:46.966Z,23.40
2023-01-10T19:06:16.729Z,23.30
2023-01-10T19:08:45.845Z,23.40
2023-01-10T19:11:16.115Z,23.60
2023-01-10T19:13:48.053Z,22.27
2023-01-10T19:16:19.819Z,22.97
2023-01-10T19:18:57.007Z,22.47
2023-01-10T19:21:26.348Z,23.67
2023-01-10T19:23:55.860Z,22.57
2023-01-10T19:26:24.520Z,22.37
2023-01-10T19:28:51.760Z,22.40
2023-01-10T19:31:27.985Z,22.50
2023-01-10T19:33:58.813Z,23.63
2023-01-10T19:36:26.450Z,24.13
2023-01-10T19:38:58.661Z,23.63
2023-01-10T19:41:28.212Z,21.80
2023-01-10T19:44:12.642Z,23.73
2023-01-10T19:46:40.743Z,24.87
2023-01-10T19:49:08.833Z,25.17
2023-01-10T19:51:40.653Z,24.03
2023-01-10T19:54:09.189Z,25.83
2023-01-10T19:56:36.724Z,24.57
2023-01-10T19:59:03.789Z,25.07
2023-01-10T20:01:32.187Z,25.77
2023-01-10T20:04:02.174Z,26.33
2023-01-10T20:06:32.394Z,27.23
2023-01-10T20:08:59.445Z,26.17
2023-01-10T20:11:37.279Z,26.10
2023-01-10T20:14:17.664Z,27.67
2023-01-10T20:16:45.729Z,27.27
2023-01-10T20:19:13.469Z,28.57
2023-01-10T20:21:42.255Z,27.73
2023-01-10T20:24:16.824Z,26.37
2023-01-10T20:26:45.819Z,25.07
2023-01-10T20:29:13.876Z,26.13
2023-01-10T20:31:43.155Z,26.67
2023-01-10T20:34:10.179Z,27.27
2023-01-10T20:36:37.372Z,26.93
2023-01-10T20:39:04.530Z,28.47
2023-01-10T20:41:31.862Z,28.67
2023-01-10T20:43:58.993Z,29.53
2023-01-10T20:46:30.760Z,29.47
2023-01-10T20:49:01.395Z,29.27
2023-01-10T20:51:33.183Z,31.43
2023-01-10T20:54:00.593Z,31.43
2023-01-10T20:56:30.924Z,31.37
2023-01-10T20:58:58.740Z,31.93
2023-01-10T21:01:35.809Z,32.03
2023-01-10T21:04:07.071Z,31.67
2023-01-10T21:06:35.910Z,31.00
2023-01-10T21:09:04.958Z,30.37
2023-01-10T21:11:36.706Z,30.73
2023-01-10T21:14:13.124Z,30.43
2023-01-10T21:16:40.106Z,30.23
2023-01-10T21:19:07.166Z,27.83
2023-01-10T21:21:34.281Z,28.50
2023-01-10T21:24:01.312Z,28.77
2023-01-10T21:26:28.344Z,27.57
2023-01-10T21:28:55.395Z,29.20
2023-01-10T21:31:22.606Z,26.80
2023-01-10T21:33:50.201Z,26.87
2023-01-10T21:36:17.926Z,26.77
2023-01-10T21:38:45.186Z,26.13
2023-01-10T21:41:35.647Z,25.87
2023-01-10T21:44:04.744Z,26.90
2023-01-10T21:46:32.196Z,25.20
2023-01-10T21:49:00.464Z,25.87
2023-01-10T21:51:27.581Z,24.90
2023-01-10T21:53:54.799Z,26.43
2023-01-10T21:56:21.926Z,24.70
2023-01-10T21:58:49.006Z,26.53
2023-01-10T22:01:16.268Z,25.43
2023-01-10T22:03:46.013Z,25.53
2023-01-10T22:06:13.534Z,25.10
2023-01-10T22:08:40.595Z,24.80
2023-01-10T22:11:10.551Z,24.57
2023-01-10T22:13:38.709Z,24.30
2023-01-10T22:16:06.963Z,24.07
2023-01-10T22:18:34.231Z,22.47
2023-01-10T22:21:01.357Z,24.43
2023-01-10T22:23:30.358Z,24.53
2023-01-10T22:26:15.050Z,25.33
2023-01-10T22:28:42.329Z,24.60
2023-01-10T22:31:09.759Z,25.20
2023-01-10T22:33:38.220Z,25.80
2023-01-10T22:36:18.124Z,25.73
2023-01-10T22:38:48.919Z,25.37
2023-01-10T22:41:27.452Z,25.57
2023-01-10T22:43:55.278Z,25.23
2023-01-10T22:46:23.357Z,26.07
2023-01-10T22:48:50.596Z,26.17
2023-01-10T22:51:19.830Z,25.53
2023-01-10T22:53:56.132Z,25.10
2023-01-10T22:56:24.555Z,25.07
2023-01-10T22:58:52.525Z,25.57
2023-01-10T23:01:22.480Z,25.93
2023-01-10T23:03:49.843Z,25.20
2023-01-10T23:06:17.954Z,25.00
2023-01-10T23:08:46.043Z,24.80
2023-01-10T23:11:17.215Z,26.27
2023-01-10T23:13:45.652Z,25.27
2023-01-10T23:16:28.501Z,25.20
2023-01-10T23:19:00.325Z,23.80
2023-01-10T23:21:30.958Z,24.23
2023-01-10T23:23:58.045Z,25.10
2023-01-10T23:26:25.379Z,24.17
2023-01-10T23:28:52.782Z,25.20
2023-01-10T23:31:23.060Z,23.73
2023-01-10T23:33:51.298Z,23.67
2023-01-10T23:36:19.358Z,22.20
2023-01-10T23:38:47.189Z,23.50
2023-01-10T23:41:14.269Z,22.10
2023-01-10T23:43:42.527Z,23.13
2023-01-10T23:46:09.839Z,22.50
2023-01-10T23:48:37.121Z,22.73
2023-01-10T23:51:07.623Z,21.83
2023-01-10T23:53:34.668Z,20.97
2023-01-10T23:56:07.814Z,20.70
2023-01-10T23:58:34.905Z,20.10
